sensor_id;sensor_type;location;lat;lon;timestamp;pressure;altitude;pressure_sealevel;temperature;humidity
11038;BME280;5572;49.540;11.932;2023-03-04T00:02:00;97379.94;;;-2.06;100.00
11038;BME280;5572;49.540;11.932;2023-03-04T00:04:29;97363.22;;;-2.07;100.00
11038;BME280;5572;49.540;11.932;2023-03-04T00:06:59;97359.75;;;-2.07;100.00
11038;BME280;5572;49.540;11.932;2023-03-04T00:09:28;97354.56;;;-2.22;100.00
11038;BME280;5572;49.540;11.932;2023-03-04T00:11:56;97345.63;;;-2.14;100.00
11038;BME280;5572;49.540;11.932;2023-03-04T00:14:25;97327.09;;;-2.14;100.00
11038;BME280;5572;49.540;11.932;2023-03-04T00:16:53;97318.56;;;-2.16;100.00
11038;BME280;5572;49.540;11.932;2023-03-04T00:19:22;97301.84;;;-2.17;100.00
11038;BME280;5572;49.540;11.932;2023-03-04T00:21:50;97284.56;;;-2.40;100.00
11038;BME280;5572;49.540;11.932;2023-03-04T00:24:20;97294.13;;;-2.39;100.00
11038;BME280;5572;49.540;11.932;2023-03-04T00:26:49;97284.34;;;-2.39;100.00
11038;BME280;5572;49.540;11.932;2023-03-04T00:29:19;97281.59;;;-2.31;100.00
11038;BME280;5572;49.540;11.932;2023-03-04T00:31:48;97259.72;;;-2.39;100.00
11038;BME280;5572;49.540;11.932;2023-03-04T00:34:16;97245.34;;;-2.30;100.00
11038;BME280;5572;49.540;11.932;2023-03-04T00:36:45;97247.56;;;-2.34;100.00
11038;BME280;5572;49.540;11.932;2023-03-04T00:39:13;97233.50;;;-2.34;100.00
11038;BME280;5572;49.540;11.932;2023-03-04T00:41:44;97205.22;;;-2.34;100.00
11038;BME280;5572;49.540;11.932;2023-03-04T00:44:12;97197.44;;;-2.42;100.00
11038;BME280;5572;49.540;11.932;2023-03-04T00:46:41;97178.19;;;-2.57;100.00
11038;BME280;5572;49.540;11.932;2023-03-04T00:49:09;97177.59;;;-2.52;100.00
11038;BME280;5572;49.540;11.932;2023-03-04T00:51:37;97163.25;;;-2.64;100.00
11038;BME280;5572;49.540;11.932;2023-03-04T00:54:05;97143.75;;;-2.63;100.00
11038;BME280;5572;49.540;11.932;2023-03-04T00:56:34;97135.75;;;-2.69;100.00
11038;BME280;5572;49.540;11.932;2023-03-04T00:59:04;97134.56;;;-2.67;100.00
11038;BME280;5572;49.540;11.932;2023-03-04T01:01:33;97120.94;;;-2.64;100.00
11038;BME280;5572;49.540;11.932;2023-03-04T01:04:02;97091.50;;;-2.55;100.00
11038;BME280;5572;49.540;11.932;2023-03-04T01:06:31;97078.88;;;-2.59;100.00
11038;BME280;5572;49.540;11.932;2023-03-04T01:09:03;97075.34;;;-2.72;100.00
11038;BME280;5572;49.540;11.932;2023-03-04T01:11:31;97086.25;;;-3.09;100.00
11038;BME280;5572;49.540;11.932;2023-03-04T01:14:03;97046.41;;;-2.80;100.00
11038;BME280;5572;49.540;11.932;2023-03-04T01:16:31;97048.38;;;-2.89;100.00
11038;BME280;5572;49.540;11.932;2023-03-04T01:19:01;97043.25;;;-2.97;100.00
11038;BME280;5572;49.540;11.932;2023-03-04T01:21:30;97038.25;;;-3.13;100.00
11038;BME280;5572;49.540;11.932;2023-03-04T01:23:59;97022.84;;;-3.03;100.00
11038;BME280;5572;49.540;11.932;2023-03-04T01:26:27;97014.59;;;-2.93;100.00
11038;BME280;5572;49.540;11.932;2023-03-04T01:28:54;97011.56;;;-2.90;100.00
11038;BME280;5572;49.540;11.932;2023-03-04T01:31:25;96996.44;;;-3.03;100.00
11038;BME280;5572;49.540;11.932;2023-03-04T01:33:54;96999.28;;;-3.04;100.00
11038;BME280;5572;49.540;11.932;2023-03-04T01:36:22;96985.72;;;-2.95;100.00
11038;BME280;5572;49.540;11.932;2023-03-04T01:38:50;96971.66;;;-2.95;100.00
11038;BME280;5572;49.540;11.932;2023-03-04T01:41:22;96960.88;;;-3.00;100.00
11038;BME280;5572;49.540;11.932;2023-03-04T01:43:50;96956.19;;;-3.05;100.00
11038;BME280;5572;49.540;11.932;2023-03-04T01:46:18;96950.44;;;-3.08;100.00
11038;BME280;5572;49.540;11.932;2023-03-04T01:48:50;96946.81;;;-3.01;100.00
11038;BME280;5572;49.540;11.932;2023-03-04T01:51:19;96933.22;;;-2.98;100.00
11038;BME280;5572;49.540;11.932;2023-03-04T01:53:49;96920.38;;;-3.01;100.00
11038;BME280;5572;49.540;11.932;2023-03-04T01:56:23;96938.94;;;-3.35;100.00
11038;BME280;5572;49.540;11.932;2023-03-04T01:59:11;96926.16;;;-3.31;100.00
11038;BME280;5572;49.540;11.932;2023-03-04T02:01:40;96919.41;;;-3.34;100.00
11038;BME280;5572;49.540;11.932;2023-03-04T02:04:10;96900.78;;;-3.26;100.00
11038;BME280;5572;49.540;11.932;2023-03-04T02:06:40;96893.44;;;-3.24;100.00
11038;BME280;5572;49.540;11.932;2023-03-04T02:09:08;96885.56;;;-3.11;100.00
11038;BME280;5572;49.540;11.932;2023-03-04T02:11:37;96879.03;;;-3.21;100.00
11038;BME280;5572;49.540;11.932;2023-03-04T02:14:09;96878.75;;;-3.33;100.00
11038;BME280;5572;49.540;11.932;2023-03-04T02:16:37;96870.06;;;-3.27;100.00
11038;BME280;5572;49.540;11.932;2023-03-04T02:19:11;96857.47;;;-3.25;100.00
11038;BME280;5572;49.540;11.932;2023-03-04T02:21:41;96864.59;;;-3.59;100.00
11038;BME280;5572;49.540;11.932;2023-03-04T02:24:14;96856.13;;;-3.48;100.00
11038;BME280;5572;49.540;11.932;2023-03-04T02:26:48;96849.19;;;-3.55;100.00
11038;BME280;5572;49.540;11.932;2023-03-04T02:29:16;96837.63;;;-3.48;100.00
11038;BME280;5572;49.540;11.932;2023-03-04T02:31:45;96839.34;;;-3.68;100.00
11038;BME280;5572;49.540;11.932;2023-03-04T02:34:15;96823.09;;;-3.71;100.00
11038;BME280;5572;49.540;11.932;2023-03-04T02:36:45;96826.94;;;-3.74;100.00
11038;BME280;5572;49.540;11.932;2023-03-04T02:39:20;96816.34;;;-3.80;100.00
11038;BME280;5572;49.540;11.932;2023-03-04T02:41:53;96816.13;;;-3.79;100.00
11038;BME280;5572;49.540;11.932;2023-03-04T02:44:22;96799.34;;;-3.71;100.00
11038;BME280;5572;49.540;11.932;2023-03-04T02:46:51;96778.28;;;-3.58;100.00
11038;BME280;5572;49.540;11.932;2023-03-04T02:49:19;96788.94;;;-3.79;100.00
11038;BME280;5572;49.540;11.932;2023-03-04T02:51:50;96770.53;;;-3.66;100.00
11038;BME280;5572;49.540;11.932;2023-03-04T02:54:21;96772.56;;;-3.68;100.00
11038;BME280;5572;49.540;11.932;2023-03-04T02:56:53;96759.56;;;-3.70;100.00
11038;BME280;5572;49.540;11.932;2023-03-04T02:59:22;96774.69;;;-3.85;100.00
11038;BME280;5572;49.540;11.932;2023-03-04T03:01:50;96755.63;;;-3.80;100.00
11038;BME280;5572;49.540;11.932;2023-03-04T03:04:19;96743.50;;;-3.68;100.00
11038;BME280;5572;49.540;11.932;2023-03-04T03:06:48;96754.97;;;-3.95;100.00
11038;BME280;5572;49.540;11.932;2023-03-04T03:09:17;96757.34;;;-4.00;100.00
11038;BME280;5572;49.540;11.932;2023-03-04T03:11:45;96759.78;;;-4.05;100.00
11038;BME280;5572;49.540;11.932;2023-03-04T03:14:14;96745.63;;;-3.91;100.00
11038;BME280;5572;49.540;11.932;2023-03-04T03:16:41;96739.97;;;-3.88;100.00
11038;BME280;5572;49.540;11.932;2023-03-04T03:19:09;96738.72;;;-3.92;100.00
11038;BME280;5572;49.540;11.932;2023-03-04T03:21:36;96746.34;;;-4.10;100.00
11038;BME280;5572;49.540;11.932;2023-03-04T03:24:03;96735.41;;;-4.07;100.00
11038;BME280;5572;49.540;11.932;2023-03-04T03:26:31;96744.28;;;-4.15;100.00
11038;BME280;5572;49.540;11.932;2023-03-04T03:28:59;96724.22;;;-4.09;100.00
11038;BME280;5572;49.540;11.932;2023-03-04T03:31:29;96723.97;;;-4.14;100.00
11038;BME280;5572;49.540;11.932;2023-03-04T03:33:59;96722.78;;;-4.12;100.00
11038;BME280;5572;49.540;11.932;2023-03-04T03:36:27;96717.91;;;-4.15;100.00
11038;BME280;5572;49.540;11.932;2023-03-04T03:38:54;96712.88;;;-4.10;100.00
11038;BME280;5572;49.540;11.932;2023-03-04T03:41:22;96723.28;;;-4.29;100.00
11038;BME280;5572;49.540;11.932;2023-03-04T03:43:50;96713.25;;;-4.13;100.00
11038;BME280;5572;49.540;11.932;2023-03-04T03:46:18;96706.31;;;-4.20;100.00
11038;BME280;5572;49.540;11.932;2023-03-04T03:48:46;96700.81;;;-4.19;100.00
11038;BME280;5572;49.540;11.932;2023-03-04T03:51:13;96690.72;;;-4.15;100.00
11038;BME280;5572;49.540;11.932;2023-03-04T03:53:44;96700.81;;;-4.25;100.00
11038;BME280;5572;49.540;11.932;2023-03-04T03:56:10;96687.03;;;-4.14;100.00
11038;BME280;5572;49.540;11.932;2023-03-04T03:58:37;96692.94;;;-4.12;100.00
11038;BME280;5572;49.540;11.932;2023-03-04T04:01:04;96695.88;;;-4.34;100.00
11038;BME280;5572;49.540;11.932;2023-03-04T04:03:31;96704.38;;;-4.39;100.00
11038;BME280;5572;49.540;11.932;2023-03-04T04:05:59;96699.94;;;-4.32;100.00
11038;BME280;5572;49.540;11.932;2023-03-04T04:08:25;96707.22;;;-4.34;100.00
11038;BME280;5572;49.540;11.932;2023-03-04T04:10:52;96694.50;;;-4.30;100.00
11038;BME280;5572;49.540;11.932;2023-03-04T04:13:19;96700.72;;;-4.38;100.00
11038;BME280;5572;49.540;11.932;2023-03-04T04:15:45;96707.75;;;-4.51;100.00
11038;BME280;5572;49.540;11.932;2023-03-04T04:18:12;96703.66;;;-4.54;100.00
11038;BME280;5572;49.540;11.932;2023-03-04T04:20:39;96697.84;;;-4.43;100.00
11038;BME280;5572;49.540;11.932;2023-03-04T04:23:07;96693.72;;;-4.52;100.00
11038;BME280;5572;49.540;11.932;2023-03-04T04:25:33;96698.56;;;-4.55;100.00
11038;BME280;5572;49.540;11.932;2023-03-04T04:28:00;96700.47;;;-4.49;100.00
11038;BME280;5572;49.540;11.932;2023-03-04T04:30:26;96706.91;;;-4.52;100.00
11038;BME280;5572;49.540;11.932;2023-03-04T04:32:53;96701.56;;;-4.65;100.00
11038;BME280;5572;49.540;11.932;2023-03-04T04:35:20;96708.91;;;-4.54;100.00
11038;BME280;5572;49.540;11.932;2023-03-04T04:37:47;96695.81;;;-4.41;100.00
11038;BME280;5572;49.540;11.932;2023-03-04T04:40:15;96675.78;;;-3.95;100.00
11038;BME280;5572;49.540;11.932;2023-03-04T04:42:42;96651.94;;;-3.48;100.00
11038;BME280;5572;49.540;11.932;2023-03-04T04:45:10;96629.22;;;-3.17;100.00
11038;BME280;5572;49.540;11.932;2023-03-04T04:47:36;96626.34;;;-3.09;100.00
11038;BME280;5572;49.540;11.932;2023-03-04T04:50:03;96615.41;;;-3.00;100.00
11038;BME280;5572;49.540;11.932;2023-03-04T04:52:31;96619.06;;;-2.81;100.00
11038;BME280;5572;49.540;11.932;2023-03-04T04:54:57;96621.06;;;-2.83;100.00
11038;BME280;5572;49.540;11.932;2023-03-04T04:57:25;96616.97;;;-2.79;100.00
11038;BME280;5572;49.540;11.932;2023-03-04T04:59:52;96630.63;;;-2.89;100.00
11038;BME280;5572;49.540;11.932;2023-03-04T05:02:18;96644.47;;;-2.87;100.00
11038;BME280;5572;49.540;11.932;2023-03-04T05:04:45;96643.25;;;-2.71;100.00
11038;BME280;5572;49.540;11.932;2023-03-04T05:07:12;96635.09;;;-2.76;100.00
11038;BME280;5572;49.540;11.932;2023-03-04T05:09:38;96629.00;;;-2.90;100.00
11038;BME280;5572;49.540;11.932;2023-03-04T05:12:05;96623.09;;;-2.98;100.00
11038;BME280;5572;49.540;11.932;2023-03-04T05:14:33;96629.81;;;-2.83;100.00
11038;BME280;5572;49.540;11.932;2023-03-04T05:17:00;96629.81;;;-2.76;100.00
11038;BME280;5572;49.540;11.932;2023-03-04T05:19:26;96622.72;;;-2.89;100.00
11038;BME280;5572;49.540;11.932;2023-03-04T05:21:53;96624.94;;;-2.86;100.00
11038;BME280;5572;49.540;11.932;2023-03-04T05:24:20;96616.00;;;-2.85;100.00
11038;BME280;5572;49.540;11.932;2023-03-04T05:26:49;96609.25;;;-2.74;100.00
11038;BME280;5572;49.540;11.932;2023-03-04T05:29:23;96594.19;;;-2.61;100.00
11038;BME280;5572;49.540;11.932;2023-03-04T05:31:54;96602.50;;;-2.58;100.00
11038;BME280;5572;49.540;11.932;2023-03-04T05:34:21;96600.50;;;-2.68;100.00
11038;BME280;5572;49.540;11.932;2023-03-04T05:36:47;96596.59;;;-2.53;100.00
11038;BME280;5572;49.540;11.932;2023-03-04T05:39:14;96595.78;;;-2.47;100.00
11038;BME280;5572;49.540;11.932;2023-03-04T05:41:40;96594.38;;;-2.56;100.00
11038;BME280;5572;49.540;11.932;2023-03-04T05:44:07;96602.50;;;-2.51;100.00
11038;BME280;5572;49.540;11.932;2023-03-04T05:46:34;96593.56;;;-2.57;100.00
11038;BME280;5572;49.540;11.932;2023-03-04T05:49:02;96592.69;;;-2.44;100.00
11038;BME280;5572;49.540;11.932;2023-03-04T05:51:29;96593.13;;;-2.47;100.00
11038;BME280;5572;49.540;11.932;2023-03-04T05:53:58;96590.84;;;-2.31;100.00
11038;BME280;5572;49.540;11.932;2023-03-04T05:56:25;96588.59;;;-2.27;100.00
11038;BME280;5572;49.540;11.932;2023-03-04T05:58:55;96580.84;;;-2.29;100.00
11038;BME280;5572;49.540;11.932;2023-03-04T06:01:22;96580.84;;;-2.29;100.00
11038;BME280;5572;49.540;11.932;2023-03-04T06:03:49;96588.75;;;-2.16;100.00
11038;BME280;5572;49.540;11.932;2023-03-04T06:06:16;96582.41;;;-2.08;100.00
11038;BME280;5572;49.540;11.932;2023-03-04T06:08:43;96585.78;;;-1.95;100.00
11038;BME280;5572;49.540;11.932;2023-03-04T06:11:10;96590.44;;;-1.90;100.00
11038;BME280;5572;49.540;11.932;2023-03-04T06:13:37;96592.09;;;-1.89;100.00
11038;BME280;5572;49.540;11.932;2023-03-04T06:16:04;96599.25;;;-1.96;100.00
11038;BME280;5572;49.540;11.932;2023-03-04T06:18:32;96597.38;;;-1.89;100.00
11038;BME280;5572;49.540;11.932;2023-03-04T06:21:00;96597.16;;;-1.88;100.00
11038;BME280;5572;49.540;11.932;2023-03-04T06:23:32;96608.59;;;-1.94;100.00
11038;BME280;5572;49.540;11.932;2023-03-04T06:25:59;96605.94;;;-1.87;100.00
11038;BME280;5572;49.540;11.932;2023-03-04T06:28:26;96599.94;;;-1.70;100.00
11038;BME280;5572;49.540;11.932;2023-03-04T06:30:54;96611.34;;;-1.76;100.00
11038;BME280;5572;49.540;11.932;2023-03-04T06:33:21;96612.47;;;-1.59;100.00
11038;BME280;5572;49.540;11.932;2023-03-04T06:35:48;96611.41;;;-1.52;100.00
11038;BME280;5572;49.540;11.932;2023-03-04T06:38:18;96618.94;;;-1.49;100.00
11038;BME280;5572;49.540;11.932;2023-03-04T06:40:46;96620.53;;;-1.41;100.00
11038;BME280;5572;49.540;11.932;2023-03-04T06:43:13;96622.25;;;-1.53;100.00
11038;BME280;5572;49.540;11.932;2023-03-04T06:45:39;96611.94;;;-1.37;100.00
11038;BME280;5572;49.540;11.932;2023-03-04T06:48:06;96621.75;;;-1.44;100.00
11038;BME280;5572;49.540;11.932;2023-03-04T06:50:33;96614.34;;;-1.29;100.00
11038;BME280;5572;49.540;11.932;2023-03-04T06:52:59;96617.06;;;-1.11;100.00
11038;BME280;5572;49.540;11.932;2023-03-04T06:55:26;96627.91;;;-1.19;100.00
11038;BME280;5572;49.540;11.932;2023-03-04T06:57:54;96637.50;;;-1.18;100.00
11038;BME280;5572;49.540;11.932;2023-03-04T07:00:21;96635.00;;;-1.13;100.00
11038;BME280;5572;49.540;11.932;2023-03-04T07:02:49;96646.75;;;-1.27;100.00
11038;BME280;5572;49.540;11.932;2023-03-04T07:05:19;96646.41;;;-1.06;100.00
11038;BME280;5572;49.540;11.932;2023-03-04T07:07:45;96655.34;;;-1.00;100.00
11038;BME280;5572;49.540;11.932;2023-03-04T07:10:14;96656.19;;;-1.06;100.00
11038;BME280;5572;49.540;11.932;2023-03-04T07:12:40;96656.19;;;-1.06;100.00
11038;BME280;5572;49.540;11.932;2023-03-04T07:15:09;96666.66;;;-0.87;100.00
11038;BME280;5572;49.540;11.932;2023-03-04T07:17:36;96665.44;;;-0.91;100.00
11038;BME280;5572;49.540;11.932;2023-03-04T07:20:03;96666.19;;;-0.84;100.00
11038;BME280;5572;49.540;11.932;2023-03-04T07:22:29;96671.09;;;-0.81;100.00
11038;BME280;5572;49.540;11.932;2023-03-04T07:24:56;96683.88;;;-0.96;100.00
11038;BME280;5572;49.540;11.932;2023-03-04T07:27:23;96681.28;;;-0.78;100.00
11038;BME280;5572;49.540;11.932;2023-03-04T07:29:50;96680.84;;;-0.75;100.00
11038;BME280;5572;49.540;11.932;2023-03-04T07:32:22;96684.84;;;-0.90;100.00
11038;BME280;5572;49.540;11.932;2023-03-04T07:34:51;96697.59;;;-0.81;100.00
11038;BME280;5572;49.540;11.932;2023-03-04T07:37:18;96695.28;;;-0.71;100.00
11038;BME280;5572;49.540;11.932;2023-03-04T07:39:45;96701.84;;;-0.74;100.00
11038;BME280;5572;49.540;11.932;2023-03-04T07:42:11;96702.25;;;-0.77;100.00
11038;BME280;5572;49.540;11.932;2023-03-04T07:44:39;96716.94;;;-0.74;100.00
11038;BME280;5572;49.540;11.932;2023-03-04T07:47:06;96715.66;;;-0.65;100.00
11038;BME280;5572;49.540;11.932;2023-03-04T07:49:34;96719.06;;;-0.58;100.00
11038;BME280;5572;49.540;11.932;2023-03-04T07:52:02;96723.34;;;-0.57;100.00
11038;BME280;5572;49.540;11.932;2023-03-04T07:54:29;96717.16;;;-0.51;100.00
11038;BME280;5572;49.540;11.932;2023-03-04T07:56:57;96727.69;;;-0.63;100.00
11038;BME280;5572;49.540;11.932;2023-03-04T07:59:23;96729.63;;;-0.52;100.00
11038;BME280;5572;49.540;11.932;2023-03-04T08:01:50;96733.28;;;-0.46;100.00
11038;BME280;5572;49.540;11.932;2023-03-04T08:04:17;96725.63;;;-0.36;100.00
11038;BME280;5572;49.540;11.932;2023-03-04T08:06:45;96735.66;;;-0.38;100.00
11038;BME280;5572;49.540;11.932;2023-03-04T08:09:13;96744.28;;;-0.43;100.00
11038;BME280;5572;49.540;11.932;2023-03-04T08:11:40;96740.06;;;-0.32;100.00
11038;BME280;5572;49.540;11.932;2023-03-04T08:14:07;96744.88;;;-0.41;100.00
11038;BME280;5572;49.540;11.932;2023-03-04T08:16:35;96748.03;;;-0.32;100.00
11038;BME280;5572;49.540;11.932;2023-03-04T08:19:03;96744.53;;;-0.26;100.00
11038;BME280;5572;49.540;11.932;2023-03-04T08:21:31;96752.59;;;-0.15;100.00
11038;BME280;5572;49.540;11.932;2023-03-04T08:34:33;96772.91;;;-0.03;100.00
11038;BME280;5572;49.540;11.932;2023-03-04T08:40:31;96787.41;;;0.19;100.00
11038;BME280;5572;49.540;11.932;2023-03-04T08:42:57;96782.53;;;0.16;100.00
11038;BME280;5572;49.540;11.932;2023-03-04T08:45:24;96784.44;;;0.09;100.00
11038;BME280;5572;49.540;11.932;2023-03-04T08:47:51;96791.72;;;0.38;100.00
11038;BME280;5572;49.540;11.932;2023-03-04T08:50:19;96785.53;;;0.44;100.00
11038;BME280;5572;49.540;11.932;2023-03-04T08:52:46;96786.91;;;0.29;100.00
11038;BME280;5572;49.540;11.932;2023-03-04T08:55:13;96793.69;;;0.25;100.00
11038;BME280;5572;49.540;11.932;2023-03-04T08:57:39;96787.44;;;0.37;100.00
11038;BME280;5572;49.540;11.932;2023-03-04T09:00:07;96793.81;;;0.54;100.00
11038;BME280;5572;49.540;11.932;2023-03-04T09:02:34;96789.66;;;0.40;100.00
11038;BME280;5572;49.540;11.932;2023-03-04T09:05:00;96803.84;;;0.34;100.00
11038;BME280;5572;49.540;11.932;2023-03-04T09:07:28;96798.38;;;0.47;100.00
11038;BME280;5572;49.540;11.932;2023-03-04T09:09:55;96810.97;;;0.34;100.00
11038;BME280;5572;49.540;11.932;2023-03-04T09:12:22;96817.13;;;0.52;100.00
11038;BME280;5572;49.540;11.932;2023-03-04T09:14:48;96817.28;;;0.57;100.00
11038;BME280;5572;49.540;11.932;2023-03-04T09:17:15;96830.44;;;0.52;100.00
11038;BME280;5572;49.540;11.932;2023-03-04T09:19:41;96832.97;;;0.41;100.00
11038;BME280;5572;49.540;11.932;2023-03-04T09:22:08;96835.38;;;0.67;100.00
11038;BME280;5572;49.540;11.932;2023-03-04T09:24:36;96829.78;;;0.75;100.00
11038;BME280;5572;49.540;11.932;2023-03-04T09:27:03;96850.50;;;0.48;100.00
11038;BME280;5572;49.540;11.932;2023-03-04T09:29:29;96847.13;;;0.77;100.00
11038;BME280;5572;49.540;11.932;2023-03-04T09:31:56;96855.41;;;0.87;100.00
11038;BME280;5572;49.540;11.932;2023-03-04T09:34:22;96855.69;;;1.15;100.00
11038;BME280;5572;49.540;11.932;2023-03-04T09:36:49;96880.00;;;0.82;100.00
11038;BME280;5572;49.540;11.932;2023-03-04T09:39:16;96875.16;;;0.97;100.00
11038;BME280;5572;49.540;11.932;2023-03-04T09:41:46;96881.06;;;0.99;100.00
11038;BME280;5572;49.540;11.932;2023-03-04T09:44:20;96906.06;;;0.98;100.00
11038;BME280;5572;49.540;11.932;2023-03-04T09:46:48;96913.78;;;0.82;100.00
11038;BME280;5572;49.540;11.932;2023-03-04T09:49:17;96917.84;;;1.02;100.00
11038;BME280;5572;49.540;11.932;2023-03-04T09:51:51;96923.72;;;1.11;100.00
11038;BME280;5572;49.540;11.932;2023-03-04T09:54:55;96929.63;;;1.13;100.00
11038;BME280;5572;49.540;11.932;2023-03-04T09:57:35;96937.25;;;1.27;100.00
11038;BME280;5572;49.540;11.932;2023-03-04T10:00:10;96950.19;;;1.42;100.00
11038;BME280;5572;49.540;11.932;2023-03-04T10:02:44;96965.69;;;1.09;100.00
11038;BME280;5572;49.540;11.932;2023-03-04T10:05:14;96975.09;;;1.11;100.00
11038;BME280;5572;49.540;11.932;2023-03-04T10:07:45;96972.28;;;1.24;100.00
11038;BME280;5572;49.540;11.932;2023-03-04T10:10:17;96988.78;;;1.33;100.00
11038;BME280;5572;49.540;11.932;2023-03-04T10:12:47;97011.13;;;1.32;100.00
11038;BME280;5572;49.540;11.932;2023-03-04T10:15:22;97020.22;;;1.24;100.00
11038;BME280;5572;49.540;11.932;2023-03-04T10:17:51;97024.50;;;1.43;100.00
11038;BME280;5572;49.540;11.932;2023-03-04T10:20:22;97043.88;;;1.32;100.00
11038;BME280;5572;49.540;11.932;2023-03-04T10:22:51;97033.47;;;1.67;100.00
11038;BME280;5572;49.540;11.932;2023-03-04T10:25:20;97051.38;;;1.42;100.00
11038;BME280;5572;49.540;11.932;2023-03-04T10:27:54;97051.38;;;1.42;100.00
11038;BME280;5572;49.540;11.932;2023-03-04T10:30:31;97055.97;;;1.35;100.00
11038;BME280;5572;49.540;11.932;2023-03-04T10:33:08;97074.84;;;1.27;100.00
11038;BME280;5572;49.540;11.932;2023-03-04T10:35:35;97078.38;;;1.63;100.00
11038;BME280;5572;49.540;11.932;2023-03-04T10:38:03;97073.28;;;1.79;100.00
11038;BME280;5572;49.540;11.932;2023-03-04T10:40:37;97096.38;;;1.67;100.00
11038;BME280;5572;49.540;11.932;2023-03-04T10:43:05;97097.94;;;1.57;100.00
11038;BME280;5572;49.540;11.932;2023-03-04T10:45:37;97093.69;;;1.85;100.00
11038;BME280;5572;49.540;11.932;2023-03-04T10:48:04;97107.75;;;1.57;100.00
11038;BME280;5572;49.540;11.932;2023-03-04T10:50:31;97106.53;;;1.77;100.00
11038;BME280;5572;49.540;11.932;2023-03-04T10:52:58;97117.22;;;1.53;100.00
11038;BME280;5572;49.540;11.932;2023-03-04T10:55:27;97118.94;;;1.83;100.00
11038;BME280;5572;49.540;11.932;2023-03-04T10:57:55;97126.66;;;1.73;100.00
11038;BME280;5572;49.540;11.932;2023-03-04T11:00:27;97145.88;;;1.57;100.00
11038;BME280;5572;49.540;11.932;2023-03-04T11:03:21;97153.22;;;1.79;100.00
11038;BME280;5572;49.540;11.932;2023-03-04T11:05:48;97151.81;;;1.77;100.00
11038;BME280;5572;49.540;11.932;2023-03-04T11:08:16;97168.63;;;1.77;100.00
11038;BME280;5572;49.540;11.932;2023-03-04T11:10:43;97164.94;;;1.96;100.00
11038;BME280;5572;49.540;11.932;2023-03-04T11:13:14;97175.50;;;1.85;100.00
11038;BME280;5572;49.540;11.932;2023-03-04T11:15:50;97179.72;;;1.74;100.00
11038;BME280;5572;49.540;11.932;2023-03-04T11:18:21;97187.53;;;1.69;100.00
11038;BME280;5572;49.540;11.932;2023-03-04T11:20:51;97184.63;;;1.95;100.00
11038;BME280;5572;49.540;11.932;2023-03-04T11:23:26;97187.47;;;2.00;100.00
11038;BME280;5572;49.540;11.932;2023-03-04T11:25:56;97212.56;;;1.68;100.00
11038;BME280;5572;49.540;11.932;2023-03-04T11:28:28;97202.72;;;1.93;100.00
11038;BME280;5572;49.540;11.932;2023-03-04T11:31:00;97214.09;;;1.82;100.00
11038;BME280;5572;49.540;11.932;2023-03-04T11:33:35;97210.72;;;1.69;100.00
11038;BME280;5572;49.540;11.932;2023-03-04T11:36:17;97195.22;;;2.20;100.00
11038;BME280;5572;49.540;11.932;2023-03-04T11:38:49;97218.13;;;2.09;100.00
11038;BME280;5572;49.540;11.932;2023-03-04T11:41:19;97225.66;;;1.94;100.00
11038;BME280;5572;49.540;11.932;2023-03-04T11:43:48;97221.38;;;2.11;100.00
11038;BME280;5572;49.540;11.932;2023-03-04T11:46:44;97232.34;;;2.03;100.00
11038;BME280;5572;49.540;11.932;2023-03-04T11:49:28;97223.09;;;2.42;100.00
11038;BME280;5572;49.540;11.932;2023-03-04T11:52:00;97234.53;;;2.06;100.00
11038;BME280;5572;49.540;11.932;2023-03-04T11:54:33;97258.03;;;1.73;100.00
11038;BME280;5572;49.540;11.932;2023-03-04T11:57:05;97242.28;;;1.90;100.00
11038;BME280;5572;49.540;11.932;2023-03-04T11:59:54;97227.63;;;2.41;100.00
11038;BME280;5572;49.540;11.932;2023-03-04T12:02:31;97230.44;;;2.46;100.00
11038;BME280;5572;49.540;11.932;2023-03-04T12:05:16;97249.00;;;1.99;100.00
11038;BME280;5572;49.540;11.932;2023-03-04T12:08:01;97250.59;;;2.24;100.00
11038;BME280;5572;49.540;11.932;2023-03-04T12:10:34;97254.13;;;2.18;100.00
11038;BME280;5572;49.540;11.932;2023-03-04T12:13:36;97248.19;;;2.16;100.00
11038;BME280;5572;49.540;11.932;2023-03-04T12:16:17;97259.09;;;1.90;100.00
11038;BME280;5572;49.540;11.932;2023-03-04T12:18:57;97256.97;;;2.23;100.00
11038;BME280;5572;49.540;11.932;2023-03-04T12:21:38;97257.22;;;2.15;100.00
11038;BME280;5572;49.540;11.932;2023-03-04T12:24:27;97246.09;;;2.00;100.00
11038;BME280;5572;49.540;11.932;2023-03-04T12:27:01;97244.91;;;2.39;100.00
11038;BME280;5572;49.540;11.932;2023-03-04T12:29:35;97246.44;;;2.28;100.00
11038;BME280;5572;49.540;11.932;2023-03-04T12:32:11;97242.13;;;2.45;100.00
11038;BME280;5572;49.540;11.932;2023-03-04T12:34:56;97244.00;;;2.27;100.00
11038;BME280;5572;49.540;11.932;2023-03-04T12:37:39;97239.84;;;2.31;100.00
11038;BME280;5572;49.540;11.932;2023-03-04T12:40:37;97261.06;;;2.01;100.00
11038;BME280;5572;49.540;11.932;2023-03-04T12:43:26;97260.44;;;2.24;100.00
11038;BME280;5572;49.540;11.932;2023-03-04T12:46:04;97264.97;;;2.41;100.00
11038;BME280;5572;49.540;11.932;2023-03-04T12:48:37;97265.00;;;2.17;100.00
11038;BME280;5572;49.540;11.932;2023-03-04T12:51:16;97259.13;;;2.68;100.00
11038;BME280;5572;49.540;11.932;2023-03-04T12:53:55;97266.91;;;2.70;100.00
11038;BME280;5572;49.540;11.932;2023-03-04T12:56:36;97284.81;;;2.45;100.00
11038;BME280;5572;49.540;11.932;2023-03-04T12:59:05;97281.72;;;2.48;100.00
11038;BME280;5572;49.540;11.932;2023-03-04T13:01:37;97278.53;;;2.57;100.00
11038;BME280;5572;49.540;11.932;2023-03-04T13:04:09;97290.56;;;2.49;100.00
11038;BME280;5572;49.540;11.932;2023-03-04T13:06:45;97281.22;;;2.57;100.00
11038;BME280;5572;49.540;11.932;2023-03-04T13:09:20;97278.38;;;2.53;100.00
11038;BME280;5572;49.540;11.932;2023-03-04T13:11:52;97279.50;;;2.81;100.00
11038;BME280;5572;49.540;11.932;2023-03-04T13:14:32;97276.31;;;2.72;100.00
11038;BME280;5572;49.540;11.932;2023-03-04T13:17:01;97296.69;;;2.49;100.00
11038;BME280;5572;49.540;11.932;2023-03-04T13:19:42;97287.81;;;2.73;100.00
11038;BME280;5572;49.540;11.932;2023-03-04T13:22:34;97296.09;;;2.47;100.00